createdAt,value
2019-03-23T00:00:38.072Z,23.40
2019-03-23T00:03:08.575Z,23.40
2019-03-23T00:05:39.074Z,23.40
2019-03-23T00:08:09.400Z,23.40
2019-03-23T00:10:41.641Z,23.40
2019-03-23T00:13:12.041Z,23.40
2019-03-23T00:15:42.453Z,23.40
2019-03-23T00:18:12.778Z,23.40
2019-03-23T00:20:44.778Z,23.30
2019-03-23T00:23:15.116Z,23.30
2019-03-23T00:25:45.471Z,23.40
2019-03-23T00:28:15.777Z,23.40
2019-03-23T00:30:46.167Z,23.30
2019-03-23T00:33:16.894Z,23.30
2019-03-23T00:35:48.834Z,23.40
2019-03-23T00:38:19.257Z,23.40
2019-03-23T00:40:49.573Z,23.40
2019-03-23T00:43:19.917Z,23.40
2019-03-23T00:45:50.276Z,23.30
2019-03-23T00:48:20.619Z,23.40
2019-03-23T00:50:51.743Z,23.30
2019-03-23T00:53:22.066Z,23.30
2019-03-23T00:55:52.410Z,23.30
2019-03-23T00:58:22.791Z,23.30
2019-03-23T01:00:53.270Z,23.30
2019-03-23T01:03:23.586Z,23.20
2019-03-23T01:05:54.920Z,23.30
2019-03-23T01:08:26.766Z,23.30
2019-03-23T01:10:57.151Z,23.30
2019-03-23T01:13:27.467Z,23.30
2019-03-23T01:15:57.784Z,23.30
2019-03-23T01:18:28.135Z,23.30
2019-03-23T01:20:59.031Z,23.30
2019-03-23T01:23:30.381Z,23.30
2019-03-23T01:26:00.773Z,23.30
2019-03-23T01:28:31.119Z,23.30
2019-03-23T01:31:01.562Z,23.30
2019-03-23T01:33:32.637Z,23.30
2019-03-23T01:36:03.241Z,23.30
2019-03-23T01:38:33.653Z,23.20
2019-03-23T01:41:04.186Z,23.20
2019-03-23T01:43:34.507Z,23.30
2019-03-23T01:46:04.914Z,23.20
2019-03-23T01:48:35.279Z,23.30
2019-03-23T01:51:05.602Z,23.20
2019-03-23T01:53:36.410Z,23.20
2019-03-23T01:56:07.391Z,23.20
2019-03-23T01:58:37.837Z,23.30
2019-03-23T02:01:08.165Z,23.20
2019-03-23T02:03:38.494Z,23.20
2019-03-23T02:06:08.968Z,23.20
2019-03-23T02:08:39.359Z,23.20
2019-03-23T02:11:10.506Z,23.20
2019-03-23T02:13:40.922Z,23.20
2019-03-23T02:16:11.285Z,23.20
2019-03-23T02:18:41.628Z,23.10
2019-03-23T02:21:12.019Z,23.20
2019-03-23T02:23:42.681Z,23.20
2019-03-23T02:26:13.895Z,23.20
2019-03-23T02:28:44.252Z,23.10
2019-03-23T02:31:14.599Z,23.20
2019-03-23T02:33:45.903Z,23.20
2019-03-23T02:36:17.457Z,23.10
2019-03-23T02:38:47.845Z,23.20
2019-03-23T02:41:18.299Z,23.10
2019-03-23T02:43:48.768Z,23.10
2019-03-23T02:46:19.149Z,23.10
2019-03-23T02:48:49.514Z,23.10
2019-03-23T02:51:20.209Z,23.10
2019-03-23T02:53:51.280Z,23.10
2019-03-23T02:56:21.730Z,23.00
2019-03-23T02:58:52.109Z,23.10
2019-03-23T03:01:22.449Z,23.10
2019-03-23T03:03:52.892Z,23.10
2019-03-23T03:06:23.316Z,23.10
2019-03-23T03:08:55.134Z,23.10
2019-03-23T03:11:25.471Z,23.10
2019-03-23T03:13:55.847Z,23.00
2019-03-23T03:16:26.649Z,23.00
2019-03-23T03:18:57.014Z,23.00
2019-03-23T03:21:27.392Z,23.00
2019-03-23T03:23:59.550Z,23.00
2019-03-23T03:26:30.209Z,23.00
2019-03-23T03:29:00.564Z,23.00
2019-03-23T03:34:21.055Z,23.00
2019-03-23T03:36:52.459Z,23.00
2019-03-23T03:39:23.382Z,23.00
2019-03-23T03:41:53.747Z,23.00
2019-03-23T03:44:24.228Z,23.00
2019-03-23T03:46:54.575Z,22.90
2019-03-23T03:49:25.239Z,23.00
2019-03-23T03:51:55.631Z,23.00
2019-03-23T03:54:26.379Z,22.90
2019-03-23T03:56:56.784Z,23.00
2019-03-23T03:59:27.255Z,23.00
2019-03-23T04:01:57.774Z,23.00
2019-03-23T04:04:28.178Z,23.00
2019-03-23T04:07:10.150Z,23.00
2019-03-23T04:09:41.418Z,22.90
2019-03-23T04:12:11.890Z,22.90
2019-03-23T04:14:42.240Z,22.90
2019-03-23T04:17:12.669Z,22.90
2019-03-23T04:19:43.022Z,22.90
2019-03-23T04:22:13.367Z,22.90
2019-03-23T04:24:44.385Z,22.90
2019-03-23T04:27:14.777Z,22.90
2019-03-23T04:29:45.142Z,22.90
2019-03-23T04:32:16.508Z,22.90
2019-03-23T04:34:47.727Z,22.90
2019-03-23T04:37:18.533Z,22.90
2019-03-23T04:39:48.892Z,22.90
2019-03-23T04:42:19.403Z,22.90
2019-03-23T04:44:49.756Z,22.90
2019-03-23T04:47:20.299Z,22.90
2019-03-23T04:49:51.101Z,22.90
2019-03-23T04:52:21.463Z,22.90
2019-03-23T04:54:51.819Z,22.90
2019-03-23T04:57:22.216Z,22.90
2019-03-23T04:59:52.551Z,22.90
2019-03-23T05:02:22.919Z,22.90
2019-03-23T05:04:53.271Z,22.90
2019-03-23T05:07:23.598Z,22.80
2019-03-23T05:09:54.520Z,22.90
2019-03-23T05:12:25.740Z,22.90
2019-03-23T05:14:56.099Z,22.90
2019-03-23T05:17:26.468Z,22.90
2019-03-23T05:19:56.882Z,22.90
2019-03-23T05:22:27.310Z,22.90
2019-03-23T05:24:58.307Z,22.90
2019-03-23T05:27:29.862Z,22.90
2019-03-23T05:30:00.326Z,22.90
2019-03-23T05:32:32.151Z,22.80
2019-03-23T05:35:02.583Z,22.90
2019-03-23T05:37:32.967Z,22.80
2019-03-23T05:40:03.646Z,22.80
2019-03-23T05:42:34.167Z,22.90
2019-03-23T05:45:04.731Z,22.90
2019-03-23T05:47:35.487Z,22.90
2019-03-23T05:50:06.101Z,22.80
2019-03-23T05:52:36.523Z,22.90
2019-03-23T05:55:07.254Z,22.80
2019-03-23T05:57:37.627Z,22.80
2019-03-23T06:00:08.573Z,22.80
2019-03-23T06:02:39.071Z,22.90
2019-03-23T06:05:09.602Z,22.80
2019-03-23T06:07:40.066Z,22.80
2019-03-23T06:10:11.595Z,22.90
2019-03-23T06:12:41.945Z,22.90
2019-03-23T06:15:12.326Z,22.80
2019-03-23T06:17:42.665Z,22.90
2019-03-23T06:20:13.846Z,22.90
2019-03-23T06:22:44.211Z,22.90
2019-03-23T06:25:14.752Z,22.90
2019-03-23T06:27:45.184Z,23.00
2019-03-23T06:30:15.785Z,23.10
2019-03-23T06:32:48.126Z,23.10
2019-03-23T06:35:18.557Z,23.30
2019-03-23T06:37:49.058Z,23.40
2019-03-23T06:40:19.403Z,23.50
2019-03-23T06:42:59.323Z,23.60
2019-03-23T06:45:22.017Z,23.80
2019-03-23T06:47:52.824Z,23.90
2019-03-23T06:50:23.266Z,24.00
2019-03-23T06:52:53.667Z,24.10
2019-03-23T06:55:24.087Z,24.20
2019-03-23T06:57:54.446Z,24.30
2019-03-23T07:00:24.855Z,24.40
2019-03-23T07:02:55.275Z,24.50
2019-03-23T07:05:25.639Z,24.60
2019-03-23T07:07:56.371Z,24.60
2019-03-23T07:10:27.048Z,24.70
2019-03-23T07:12:59.587Z,24.80
2019-03-23T07:15:30.075Z,24.90
2019-03-23T07:18:00.522Z,24.90
2019-03-23T07:20:30.950Z,25.00
2019-03-23T07:23:01.351Z,25.10
2019-03-23T07:25:31.829Z,25.20
2019-03-23T07:28:02.638Z,25.30
2019-03-23T07:30:33.066Z,25.30
2019-03-23T07:33:05.044Z,25.40
2019-03-23T07:35:35.582Z,25.40
2019-03-23T07:38:06.091Z,25.50
2019-03-23T07:40:36.553Z,25.50
2019-03-23T07:43:07.036Z,25.60
2019-03-23T07:45:37.503Z,25.70
2019-03-23T07:48:08.321Z,25.70
2019-03-23T07:50:38.754Z,25.70
2019-03-23T07:53:09.135Z,25.80
2019-03-23T07:55:39.525Z,25.80
2019-03-23T07:58:09.886Z,25.80
2019-03-23T08:00:41.049Z,25.80
2019-03-23T08:03:11.883Z,25.90
2019-03-23T08:05:42.383Z,25.90
2019-03-23T08:08:13.762Z,25.90
2019-03-23T08:10:44.410Z,25.90
2019-03-23T08:13:15.481Z,25.90
2019-03-23T08:15:45.835Z,26.00
2019-03-23T08:18:16.190Z,26.00
2019-03-23T08:20:46.587Z,26.00
2019-03-23T08:23:16.994Z,26.00
2019-03-23T08:25:47.419Z,26.00
2019-03-23T08:28:18.199Z,26.00
2019-03-23T08:30:48.646Z,26.00
2019-03-23T08:33:20.194Z,26.00
2019-03-23T08:35:50.610Z,26.00
2019-03-23T08:38:20.969Z,26.00
2019-03-23T08:40:51.380Z,26.00
2019-03-23T08:43:21.818Z,26.00
2019-03-23T08:45:52.186Z,26.00
2019-03-23T08:48:22.534Z,26.00
2019-03-23T08:50:53.376Z,26.00
2019-03-23T08:53:25.221Z,26.00
2019-03-23T08:55:55.570Z,25.90
2019-03-23T08:58:30.449Z,25.90
2019-03-23T09:01:01.299Z,25.90
2019-03-23T09:03:31.726Z,25.90
2019-03-23T09:06:02.080Z,25.90
2019-03-23T09:08:32.436Z,25.90
2019-03-23T09:11:04.159Z,25.80
2019-03-23T09:13:40.577Z,25.80
2019-03-23T09:16:06.795Z,25.80
2019-03-23T09:18:37.146Z,25.80
2019-03-23T09:21:07.530Z,25.70
2019-03-23T09:23:37.910Z,25.70
2019-03-23T09:26:08.271Z,25.70
2019-03-23T09:28:38.617Z,25.70
2019-03-23T09:31:09.413Z,25.70
2019-03-23T09:33:40.081Z,25.60
2019-03-23T09:36:12.112Z,25.60
2019-03-23T09:38:42.476Z,25.50
2019-03-23T09:41:12.839Z,25.50
2019-03-23T09:43:43.263Z,25.50
2019-03-23T09:46:15.494Z,25.50
2019-03-23T09:48:46.115Z,25.50
2019-03-23T09:51:16.526Z,25.40
2019-03-23T09:53:46.863Z,25.40
2019-03-23T09:56:17.269Z,25.40
2019-03-23T09:58:47.650Z,25.40
2019-03-23T10:01:18.152Z,25.40
2019-03-23T10:03:48.521Z,25.30
2019-03-23T10:06:18.879Z,25.30
2019-03-23T10:08:49.529Z,25.30
2019-03-23T10:11:19.886Z,25.30
2019-03-23T10:13:50.387Z,25.20
2019-03-23T10:16:22.452Z,25.30
2019-03-23T10:18:52.811Z,25.20
2019-03-23T10:21:23.181Z,25.20
2019-03-23T10:23:54.629Z,25.20
2019-03-23T10:26:25.158Z,25.20
2019-03-23T10:28:55.542Z,25.10
2019-03-23T10:31:26.329Z,25.10
2019-03-23T10:33:56.867Z,25.10
2019-03-23T10:36:28.511Z,25.10
2019-03-23T10:38:58.858Z,25.10
2019-03-23T10:41:29.329Z,25.10
2019-03-23T10:43:59.706Z,25.10
2019-03-23T10:46:30.081Z,25.10
2019-03-23T10:49:00.419Z,25.10
2019-03-23T10:51:31.057Z,25.10
2019-03-23T10:54:01.440Z,25.00
2019-03-23T10:56:31.806Z,25.10
2019-03-23T10:59:02.147Z,25.10
2019-03-23T11:01:32.503Z,25.00
2019-03-23T11:04:03.043Z,25.00
2019-03-23T11:06:33.459Z,25.00
2019-03-23T11:09:07.016Z,25.00
2019-03-23T11:11:37.366Z,25.00
2019-03-23T11:14:08.887Z,25.00
2019-03-23T11:16:39.273Z,25.00
2019-03-23T11:19:13.488Z,25.00
2019-03-23T11:21:42.939Z,24.90
2019-03-23T11:24:13.435Z,25.00
2019-03-23T11:26:43.905Z,24.90
2019-03-23T11:29:14.278Z,24.90
2019-03-23T11:31:45.975Z,24.90
2019-03-23T11:34:18.148Z,25.00
2019-03-23T11:36:48.722Z,24.90
2019-03-23T11:39:19.087Z,25.00
2019-03-23T11:41:49.774Z,24.90
2019-03-23T11:44:20.154Z,25.00
2019-03-23T11:46:50.546Z,25.00
2019-03-23T11:49:21.229Z,25.00
2019-03-23T11:51:51.630Z,25.00
2019-03-23T11:54:22.027Z,25.00
2019-03-23T11:56:52.410Z,25.00
2019-03-23T11:59:22.773Z,25.00
2019-03-23T12:01:53.396Z,24.90
2019-03-23T12:04:25.200Z,25.00
2019-03-23T12:06:55.891Z,25.00
2019-03-23T12:09:29.309Z,25.00
2019-03-23T12:11:59.768Z,25.00
2019-03-23T12:14:31.191Z,25.00
2019-03-23T12:17:04.036Z,25.00
2019-03-23T12:19:34.384Z,25.00
2019-03-23T12:22:04.906Z,25.00
2019-03-23T12:24:35.269Z,25.00
2019-03-23T12:27:05.851Z,25.00
2019-03-23T12:29:36.200Z,25.00
2019-03-23T12:32:09.017Z,25.00
2019-03-23T12:34:39.446Z,25.00
2019-03-23T12:37:09.841Z,25.00
2019-03-23T12:39:40.216Z,25.00
2019-03-23T12:42:10.602Z,25.00
2019-03-23T12:44:40.972Z,25.10
2019-03-23T12:47:11.323Z,25.00
2019-03-23T12:49:42.095Z,25.00
2019-03-23T12:52:12.520Z,25.00
2019-03-23T12:54:43.007Z,25.00
2019-03-23T12:57:13.350Z,25.00
2019-03-23T12:59:43.718Z,25.00
2019-03-23T13:02:14.111Z,25.00
2019-03-23T13:04:44.566Z,25.00
2019-03-23T13:07:15.815Z,25.10
2019-03-23T13:09:46.709Z,25.00
2019-03-23T13:12:18.099Z,25.00
2019-03-23T13:14:48.952Z,25.00
2019-03-23T13:17:19.779Z,25.00
2019-03-23T13:19:50.137Z,25.00
2019-03-23T13:22:20.570Z,25.00
2019-03-23T13:24:51.299Z,25.00
2019-03-23T13:27:21.690Z,25.10
2019-03-23T13:29:52.831Z,25.10
2019-03-23T13:32:25.215Z,25.00
2019-03-23T13:34:55.618Z,25.00
2019-03-23T13:37:25.978Z,25.10
2019-03-23T13:39:56.335Z,25.00
2019-03-23T13:42:26.878Z,25.00
2019-03-23T13:44:57.238Z,25.10
2019-03-23T13:47:27.594Z,25.00
2019-03-23T13:49:58.090Z,25.10
2019-03-23T13:52:28.519Z,25.10
2019-03-23T13:54:59.934Z,25.10
2019-03-23T13:57:31.153Z,25.10
2019-03-23T14:00:01.511Z,25.00
2019-03-23T14:02:31.903Z,25.00
2019-03-23T14:05:02.282Z,25.00
2019-03-23T14:07:32.655Z,25.00
2019-03-23T14:10:03.341Z,25.10
2019-03-23T14:12:33.734Z,25.10
2019-03-23T14:15:04.777Z,25.10
2019-03-23T14:17:35.613Z,25.10
2019-03-23T14:20:07.202Z,25.10
2019-03-23T14:22:37.554Z,25.00
2019-03-23T14:25:08.249Z,25.00
2019-03-23T14:27:38.671Z,25.00
2019-03-23T14:30:10.013Z,25.10
2019-03-23T14:32:41.509Z,25.10
2019-03-23T14:35:12.729Z,25.00
2019-03-23T14:37:43.103Z,25.00
2019-03-23T14:40:13.614Z,25.00
2019-03-23T14:42:44.067Z,25.00
2019-03-23T14:45:14.795Z,25.00
2019-03-23T14:47:45.187Z,25.00
2019-03-23T14:50:15.626Z,25.00
2019-03-23T14:52:47.867Z,25.00
2019-03-23T14:55:18.525Z,25.00
2019-03-23T14:57:48.870Z,25.00
2019-03-23T15:00:32.503Z,25.00
2019-03-23T15:03:03.102Z,25.00
2019-03-23T15:05:33.629Z,25.00
2019-03-23T15:08:04.133Z,24.90
2019-03-23T15:10:34.510Z,24.90
2019-03-23T15:13:04.875Z,24.90
2019-03-23T15:15:35.453Z,24.90
2019-03-23T15:18:06.829Z,24.90
2019-03-23T15:20:37.228Z,24.90
2019-03-23T15:23:07.715Z,24.90
2019-03-23T15:25:39.491Z,24.90
2019-03-23T15:28:10.221Z,24.90
2019-03-23T15:30:40.610Z,24.90
2019-03-23T15:33:11.903Z,24.90
2019-03-23T15:35:42.332Z,24.80
2019-03-23T15:38:12.724Z,24.80
2019-03-23T15:40:43.086Z,24.80
2019-03-23T15:43:14.421Z,24.80
2019-03-23T15:45:44.879Z,24.80
2019-03-23T15:48:15.290Z,24.80
2019-03-23T15:50:45.690Z,24.80
2019-03-23T15:53:16.129Z,24.80
2019-03-23T15:55:46.538Z,24.80
2019-03-23T15:58:17.598Z,24.80
2019-03-23T16:00:47.966Z,24.70
2019-03-23T16:03:18.427Z,24.70
2019-03-23T16:05:48.767Z,24.70
2019-03-23T16:08:19.125Z,24.70
2019-03-23T16:10:49.493Z,24.70
2019-03-23T16:13:20.573Z,24.70
2019-03-23T16:15:50.912Z,24.70
2019-03-23T16:18:22.456Z,24.70
2019-03-23T16:20:52.822Z,24.70
2019-03-23T16:23:23.178Z,24.70
2019-03-23T16:25:53.616Z,24.70
2019-03-23T16:28:24.067Z,24.70
2019-03-23T16:30:54.475Z,24.70
2019-03-23T16:33:26.235Z,24.60
2019-03-23T16:35:56.639Z,24.70
2019-03-23T16:38:28.637Z,24.60
2019-03-23T16:40:58.978Z,24.60
2019-03-23T16:43:29.354Z,24.60
2019-03-23T16:45:59.716Z,24.60
2019-03-23T16:48:30.157Z,24.60
2019-03-23T16:51:00.501Z,24.60
2019-03-23T16:53:31.495Z,24.60
2019-03-23T16:56:01.843Z,24.60
2019-03-23T16:58:32.355Z,24.60
2019-03-23T17:01:02.793Z,24.60
2019-03-23T17:03:33.147Z,24.50
2019-03-23T17:06:03.662Z,24.50
2019-03-23T17:08:34.467Z,24.50
2019-03-23T17:11:04.956Z,24.50
2019-03-23T17:13:35.480Z,24.40
2019-03-23T17:16:05.922Z,24.40
2019-03-23T17:18:38.194Z,24.40
2019-03-23T17:21:08.614Z,24.40
2019-03-23T17:23:39.041Z,24.40
2019-03-23T17:26:09.384Z,24.40
2019-03-23T17:28:39.822Z,24.30
2019-03-23T17:31:10.167Z,24.30
2019-03-23T17:33:42.646Z,24.30
2019-03-23T17:36:13.066Z,24.30
2019-03-23T17:38:45.112Z,24.30
2019-03-23T17:41:15.563Z,24.30
2019-03-23T17:43:45.943Z,24.30
2019-03-23T17:46:16.373Z,24.20
2019-03-23T17:48:46.780Z,24.20
2019-03-23T17:51:17.127Z,24.20
2019-03-23T17:53:47.492Z,24.20
2019-03-23T17:56:17.978Z,24.20
2019-03-23T17:58:48.371Z,24.20
2019-03-23T18:01:19.735Z,24.20
2019-03-23T18:03:50.358Z,24.10
2019-03-23T18:06:20.867Z,24.10
2019-03-23T18:08:51.387Z,24.10
2019-03-23T18:11:22.203Z,24.10
2019-03-23T18:13:52.615Z,24.10
2019-03-23T18:16:23.011Z,24.10
2019-03-23T18:18:54.403Z,24.00
2019-03-23T18:21:24.759Z,24.00
2019-03-23T18:23:55.230Z,24.00
2019-03-23T18:26:25.580Z,24.00
2019-03-23T18:28:56.014Z,24.00
2019-03-23T18:31:26.366Z,24.00
2019-03-23T18:33:58.599Z,23.90
2019-03-23T18:36:29.023Z,24.00
2019-03-23T18:38:59.492Z,23.90
2019-03-23T18:41:30.059Z,23.90
2019-03-23T18:44:00.542Z,23.90
2019-03-23T18:46:31.054Z,23.90
2019-03-23T18:49:02.386Z,23.90
2019-03-23T18:51:32.831Z,23.90
2019-03-23T18:54:03.632Z,23.90
2019-03-23T18:56:34.201Z,23.80
2019-03-23T18:59:04.659Z,23.90
2019-03-23T19:01:35.014Z,23.80
2019-03-23T19:04:05.476Z,23.90
2019-03-23T19:06:36.543Z,23.80
2019-03-23T19:09:08.005Z,23.80
2019-03-23T19:11:38.605Z,23.80
2019-03-23T19:14:09.022Z,23.80
2019-03-23T19:16:41.174Z,23.80
2019-03-23T19:19:12.845Z,23.80
2019-03-23T19:21:43.209Z,23.80
2019-03-23T19:24:14.911Z,23.70
2019-03-23T19:26:45.267Z,23.70
2019-03-23T19:29:15.646Z,23.70
2019-03-23T19:31:46.911Z,23.70
2019-03-23T19:34:18.391Z,23.70
2019-03-23T19:36:48.872Z,23.70
2019-03-23T19:39:19.254Z,23.70
2019-03-23T19:41:49.621Z,23.70
2019-03-23T19:44:19.974Z,23.70
2019-03-23T19:46:52.360Z,23.60
2019-03-23T19:49:23.692Z,23.70
2019-03-23T19:51:54.085Z,23.60
2019-03-23T19:54:24.445Z,23.60
2019-03-23T19:56:54.843Z,23.60
2019-03-23T19:59:25.272Z,23.60
2019-03-23T20:01:55.687Z,23.60
2019-03-23T20:04:26.452Z,23.60
2019-03-23T20:06:56.894Z,23.50
2019-03-23T20:09:27.364Z,23.50
2019-03-23T20:11:57.822Z,23.50
2019-03-23T20:14:28.252Z,23.60
2019-03-23T20:16:58.707Z,23.60
2019-03-23T20:19:29.134Z,23.50
2019-03-23T20:21:59.702Z,23.50
2019-03-23T20:24:31.510Z,23.50
2019-03-23T20:27:02.179Z,23.50
2019-03-23T20:29:32.640Z,23.50
2019-03-23T20:32:03.829Z,23.50
2019-03-23T20:34:35.670Z,23.50
2019-03-23T20:37:08.221Z,23.40
2019-03-23T20:39:38.080Z,23.50
2019-03-23T20:42:08.555Z,23.40
2019-03-23T20:44:38.952Z,23.40
2019-03-23T20:47:09.458Z,23.40
2019-03-23T20:49:41.303Z,23.40
2019-03-23T20:52:11.739Z,23.40
2019-03-23T20:54:42.163Z,23.40
2019-03-23T20:57:23.241Z,23.40
2019-03-23T20:59:44.669Z,23.40
2019-03-23T21:02:15.127Z,23.40
2019-03-23T21:04:45.546Z,23.40
2019-03-23T21:07:16.927Z,23.40
2019-03-23T21:09:47.279Z,23.40
2019-03-23T21:12:17.679Z,23.30
2019-03-23T21:14:48.095Z,23.40
2019-03-23T21:17:18.459Z,23.30
2019-03-23T21:19:48.889Z,23.30
2019-03-23T21:22:20.868Z,23.30
2019-03-23T21:24:52.188Z,23.30
2019-03-23T21:27:22.524Z,23.30
2019-03-23T21:29:52.949Z,23.30
2019-03-23T21:32:25.016Z,23.30
2019-03-23T21:34:55.374Z,23.20
2019-03-23T21:37:25.744Z,23.30
2019-03-23T21:39:56.164Z,23.20
2019-03-23T21:42:26.846Z,23.30
2019-03-23T21:44:57.217Z,23.20
2019-03-23T21:47:27.579Z,23.30
2019-03-23T21:49:57.975Z,23.30
2019-03-23T21:52:28.505Z,23.30
2019-03-23T21:54:58.888Z,23.20
2019-03-23T21:57:29.244Z,23.20
2019-03-23T21:59:59.683Z,23.20
2019-03-23T22:02:30.153Z,23.10
2019-03-23T22:05:00.511Z,23.20
2019-03-23T22:07:31.188Z,23.10
2019-03-23T22:10:02.264Z,23.20
2019-03-23T22:12:34.291Z,23.10
2019-03-23T22:15:05.531Z,23.10
2019-03-23T22:17:35.965Z,23.10
2019-03-23T22:20:07.967Z,23.10
2019-03-23T22:22:39.038Z,23.10
2019-03-23T22:25:10.202Z,23.10
2019-03-23T22:27:40.737Z,23.10
2019-03-23T22:30:12.237Z,23.10
2019-03-23T22:32:44.260Z,23.10
2019-03-23T22:35:14.818Z,23.10
2019-03-23T22:37:45.270Z,23.10
2019-03-23T22:40:16.988Z,23.00
2019-03-23T22:42:47.407Z,23.10
2019-03-23T22:45:17.771Z,23.10
2019-03-23T22:47:48.235Z,23.00
2019-03-23T22:50:18.590Z,23.10
2019-03-23T22:52:49.312Z,23.10
2019-03-23T22:55:19.683Z,23.10
2019-03-23T22:57:50.027Z,23.10
2019-03-23T23:00:28.319Z,23.10
2019-03-23T23:02:59.486Z,23.00
2019-03-23T23:05:29.954Z,23.00
2019-03-23T23:08:00.489Z,23.00
2019-03-23T23:10:31.143Z,23.10
2019-03-23T23:13:02.356Z,23.00
2019-03-23T23:15:32.724Z,23.00
2019-03-23T23:18:03.080Z,23.00
2019-03-23T23:20:33.507Z,23.00
2019-03-23T23:23:05.080Z,23.00
2019-03-23T23:25:35.424Z,23.00
2019-03-23T23:28:06.024Z,23.00
2019-03-23T23:30:36.720Z,23.00
2019-03-23T23:33:08.626Z,23.00
2019-03-23T23:35:39.002Z,23.00
2019-03-23T23:38:09.591Z,23.00
2019-03-23T23:40:39.946Z,22.90
2019-03-23T23:43:10.371Z,22.90
2019-03-23T23:45:40.783Z,22.90
2019-03-23T23:48:11.597Z,22.90
2019-03-23T23:50:41.946Z,23.00
2019-03-23T23:53:12.595Z,22.90
2019-03-23T23:55:42.955Z,22.90
2019-03-23T23:58:13.364Z,23.00
